Time;durP1;ratioP1;P1;durP2;ratioP2;P2;SDS_P1;SDS_P2;PMS_P1;PMS_P2;Temp;Humidity;BMP_temperature;BMP_pressure;BME280_temperature;BME280_humidity;BME280_pressure;Samples;Min_cycle;Max_cycle;Signal;HPM_P1;HPM_P2
2022/11/25 00:02:25;;;;;;;;;;;1.90;99.90;;;;;;1907417;75;20115;-74
2022/11/25 00:04:52;;;;;;;;;;;2.00;99.90;;;;;;1907439;75;20111;-74
2022/11/25 00:07:19;;;;;;;;;;;1.90;99.90;;;;;;1907567;75;20123;-75
2022/11/25 00:09:46;;;;;;;;;;;1.90;99.90;;;;;;1907722;75;20103;-73
2022/11/25 00:12:13;;;;;;;;;;;1.90;99.90;;;;;;1907398;75;20118;-75
2022/11/25 00:14:40;;;;;;;;;;;1.80;99.90;;;;;;1907259;75;20203;-74
2022/11/25 00:17:07;;;;;;;;;;;1.80;99.90;;;;;;1907521;75;20166;-75
2022/11/25 00:19:34;;;;;;;;;;;1.80;99.90;;;;;;1907031;75;20126;-75
2022/11/25 00:22:00;;;;;;;;;;;1.80;99.90;;;;;;1906988;75;20118;-75
2022/11/25 00:24:27;;;;;;;;;;;1.70;99.90;;;;;;1906933;75;20207;-75
2022/11/25 00:26:54;;;;;;;;;;;1.70;99.90;;;;;;1906989;75;20114;-73
2022/11/25 00:29:20;;;;;;;;;;;1.70;99.90;;;;;;1907209;75;20122;-75
2022/11/25 00:31:47;;;;;;;;;;;1.60;99.90;;;;;;1907097;75;20166;-76
2022/11/25 00:34:14;;;;;;;;;;;1.60;99.90;;;;;;1906892;75;20142;-76
2022/11/25 00:36:42;;;;;;;;;;;1.50;99.90;;;;;;1907220;75;20185;-75
2022/11/25 00:39:10;;;;;;;;;;;1.60;99.90;;;;;;1906970;75;20356;-75
2022/11/25 00:44:40;;;;;;;;;;;1.70;99.90;;;;;;1906874;75;20115;-75
2022/11/25 00:47:08;;;;;;;;;;;1.70;99.90;;;;;;1906923;75;20187;-75
2022/11/25 00:49:35;;;;;;;;;;;1.60;99.90;;;;;;1906919;75;20192;-74
2022/11/25 00:52:02;;;;;;;;;;;1.60;99.90;;;;;;1906851;75;20126;-77
2022/11/25 00:54:28;;;;;;;;;;;1.70;99.90;;;;;;1906919;75;20357;-75
2022/11/25 00:56:55;;;;;;;;;;;1.70;99.90;;;;;;1907048;75;20114;-75
2022/11/25 00:59:22;;;;;;;;;;;1.70;99.90;;;;;;1907521;75;20380;-74
2022/11/25 01:01:48;;;;;;;;;;;1.70;99.90;;;;;;1907675;75;20143;-76
2022/11/25 01:04:16;;;;;;;;;;;1.70;99.90;;;;;;1907503;75;20357;-75
2022/11/25 01:06:42;;;;;;;;;;;1.70;99.90;;;;;;1906897;75;20103;-74
2022/11/25 01:09:10;;;;;;;;;;;1.70;99.90;;;;;;1906811;75;20110;-75
2022/11/25 01:11:36;;;;;;;;;;;1.80;99.90;;;;;;1907057;75;20270;-75
2022/11/25 01:14:03;;;;;;;;;;;1.90;99.90;;;;;;1906800;75;20357;-75
2022/11/25 01:16:30;;;;;;;;;;;1.90;99.90;;;;;;1906950;75;20114;-75
2022/11/25 01:18:58;;;;;;;;;;;1.90;99.90;;;;;;1906922;75;20158;-75
2022/11/25 01:21:26;;;;;;;;;;;1.80;99.90;;;;;;1905826;75;20150;-76
2022/11/25 01:23:53;;;;;;;;;;;1.90;99.90;;;;;;1906967;75;20156;-75
2022/11/25 01:26:20;;;;;;;;;;;1.90;99.90;;;;;;1906882;75;20150;-76
2022/11/25 01:28:47;;;;;;;;;;;1.90;99.90;;;;;;1906988;75;20169;-75
2022/11/25 01:31:15;;;;;;;;;;;2.00;99.90;;;;;;1906833;75;20114;-75
2022/11/25 01:33:42;;;;;;;;;;;1.90;99.90;;;;;;1905953;75;20126;-75
2022/11/25 01:36:10;;;;;;;;;;;1.90;99.90;;;;;;1906921;75;20172;-76
2022/11/25 01:38:37;;;;;;;;;;;1.90;99.90;;;;;;1906985;75;20150;-75
2022/11/25 01:41:03;;;;;;;;;;;1.90;99.90;;;;;;1906850;75;20322;-75
2022/11/25 01:43:30;;;;;;;;;;;1.80;99.90;;;;;;1906925;75;20161;-76
2022/11/25 01:45:58;;;;;;;;;;;2.00;99.90;;;;;;1906799;75;20195;-75
2022/11/25 01:48:26;;;;;;;;;;;2.00;99.90;;;;;;1906717;75;20130;-76
2022/11/25 01:50:53;;;;;;;;;;;2.00;99.90;;;;;;1906946;75;20129;-75
2022/11/25 01:53:19;;;;;;;;;;;1.90;99.90;;;;;;1906832;75;20122;-75
2022/11/25 01:55:48;;;;;;;;;;;1.90;99.90;;;;;;1907006;75;20157;-74
2022/11/25 01:58:15;;;;;;;;;;;1.90;99.90;;;;;;1906972;75;20118;-74
2022/11/25 02:00:49;;;;;;;;;;;1.90;99.90;;;;;;1906924;75;20114;-74
2022/11/25 02:03:10;;;;;;;;;;;2.00;99.90;;;;;;1905630;75;20107;-76
2022/11/25 02:05:38;;;;;;;;;;;2.00;99.90;;;;;;1906807;75;20411;-74
2022/11/25 02:08:05;;;;;;;;;;;2.10;99.90;;;;;;1906813;75;20314;-75
2022/11/25 02:10:32;;;;;;;;;;;2.20;99.90;;;;;;1906880;75;20172;-75
2022/11/25 02:12:59;;;;;;;;;;;2.30;99.90;;;;;;1906893;75;20130;-76
2022/11/25 02:15:25;;;;;;;;;;;2.20;99.90;;;;;;1907039;75;20118;-76
2022/11/25 02:17:52;;;;;;;;;;;2.40;99.90;;;;;;1907035;75;20122;-74
2022/11/25 02:20:20;;;;;;;;;;;2.40;99.90;;;;;;1906861;75;20122;-75
2022/11/25 02:22:48;;;;;;;;;;;2.30;99.90;;;;;;1906985;75;20153;-74
2022/11/25 02:25:16;;;;;;;;;;;2.30;99.90;;;;;;1906975;75;20122;-75
2022/11/25 02:27:44;;;;;;;;;;;2.40;99.90;;;;;;1905868;75;20192;-75
2022/11/25 02:30:10;;;;;;;;;;;2.40;99.90;;;;;;1906875;75;20110;-73
2022/11/25 02:32:39;;;;;;;;;;;2.40;99.90;;;;;;1906824;75;20443;-74
2022/11/25 02:35:07;;;;;;;;;;;2.40;99.90;;;;;;1906917;75;20118;-75
2022/11/25 02:37:34;;;;;;;;;;;2.30;99.90;;;;;;1907104;75;20150;-74
2022/11/25 02:40:00;;;;;;;;;;;2.30;99.90;;;;;;1906841;75;20160;-75
2022/11/25 02:42:27;;;;;;;;;;;2.30;99.90;;;;;;1906879;75;20242;-75
2022/11/25 02:45:13;;;;;;;;;;;2.30;99.90;;;;;;1906872;75;20144;-76
2022/11/25 02:47:40;;;;;;;;;;;2.20;99.90;;;;;;1951420;73;20168;-75
2022/11/25 02:50:07;;;;;;;;;;;2.10;99.90;;;;;;1951455;74;20102;-75
2022/11/25 02:52:33;;;;;;;;;;;2.00;99.90;;;;;;1951341;74;20333;-75
2022/11/25 02:55:00;;;;;;;;;;;2.10;99.90;;;;;;1951287;74;20147;-75
2022/11/25 02:57:27;;;;;;;;;;;2.10;99.90;;;;;;1951323;74;20333;-75
2022/11/25 02:59:54;;;;;;;;;;;2.10;99.90;;;;;;1951322;73;20109;-75
2022/11/25 03:02:20;;;;;;;;;;;2.10;99.90;;;;;;1951475;74;20363;-75
2022/11/25 03:04:47;;;;;;;;;;;2.20;99.90;;;;;;1951397;73;20125;-75
2022/11/25 03:07:14;;;;;;;;;;;2.10;99.90;;;;;;1951355;74;20143;-75
2022/11/25 03:09:42;;;;;;;;;;;2.20;99.90;;;;;;1951440;74;20148;-75
2022/11/25 03:12:18;;;;;;;;;;;2.10;99.90;;;;;;1951541;74;20325;-75
2022/11/25 03:14:44;;;;;;;;;;;2.20;99.90;;;;;;1951380;74;20132;-76
2022/11/25 03:17:11;;;;;;;;;;;2.10;99.90;;;;;;1951367;74;20321;-75
2022/11/25 03:19:38;;;;;;;;;;;2.10;99.90;;;;;;1951310;74;20114;-76
2022/11/25 03:22:04;;;;;;;;;;;2.10;99.90;;;;;;1951391;74;20123;-76
2022/11/25 03:24:32;;;;;;;;;;;2.10;99.90;;;;;;1951389;74;20125;-75
2022/11/25 03:26:58;;;;;;;;;;;2.10;99.90;;;;;;1951375;74;20109;-76
2022/11/25 03:29:25;;;;;;;;;;;2.10;99.90;;;;;;1951432;74;20214;-75
2022/11/25 03:31:52;;;;;;;;;;;2.10;99.90;;;;;;1951456;74;20140;-75
2022/11/25 03:34:18;;;;;;;;;;;2.00;99.90;;;;;;1951445;73;20133;-75
2022/11/25 03:36:45;;;;;;;;;;;2.00;99.90;;;;;;1951449;74;20152;-75
2022/11/25 03:39:12;;;;;;;;;;;1.90;99.90;;;;;;1951393;74;20105;-75
2022/11/25 03:41:38;;;;;;;;;;;1.90;99.90;;;;;;1951460;74;20106;-76
2022/11/25 03:44:05;;;;;;;;;;;1.80;99.90;;;;;;1951411;74;20113;-74
2022/11/25 03:46:32;;;;;;;;;;;1.90;99.90;;;;;;1951382;74;20110;-74
2022/11/25 03:48:58;;;;;;;;;;;1.90;99.90;;;;;;1951417;74;20105;-75
2022/11/25 03:51:25;;;;;;;;;;;1.90;99.90;;;;;;1951478;74;20137;-75
2022/11/25 03:53:52;;;;;;;;;;;1.90;99.90;;;;;;1951458;74;20117;-75
2022/11/25 03:56:19;;;;;;;;;;;1.90;99.90;;;;;;1951479;74;20136;-75
2022/11/25 03:58:46;;;;;;;;;;;1.70;99.90;;;;;;1951506;73;20328;-75
2022/11/25 04:01:12;;;;;;;;;;;1.90;99.90;;;;;;1951491;74;20163;-75
2022/11/25 04:03:39;;;;;;;;;;;1.80;99.90;;;;;;1951509;73;20333;-74
2022/11/25 04:06:06;;;;;;;;;;;1.80;99.90;;;;;;1951542;74;20109;-75
2022/11/25 04:08:32;;;;;;;;;;;1.70;99.90;;;;;;1951498;74;20341;-75
2022/11/25 04:10:59;;;;;;;;;;;1.60;99.90;;;;;;1951432;73;20140;-73
2022/11/25 04:13:26;;;;;;;;;;;1.70;99.90;;;;;;1951410;74;20352;-75
2022/11/25 04:15:53;;;;;;;;;;;1.80;99.90;;;;;;1953756;73;20113;-75
2022/11/25 04:18:20;;;;;;;;;;;1.80;99.90;;;;;;1951430;74;20115;-75
2022/11/25 04:20:46;;;;;;;;;;;1.70;99.90;;;;;;1951387;74;20149;-75
2022/11/25 04:23:13;;;;;;;;;;;1.70;99.90;;;;;;1952249;74;20098;-75
2022/11/25 04:25:40;;;;;;;;;;;1.80;99.90;;;;;;1951475;74;20102;-78
2022/11/25 04:28:07;;;;;;;;;;;1.80;99.90;;;;;;1951480;74;20431;-75
2022/11/25 04:30:33;;;;;;;;;;;1.80;99.90;;;;;;1951439;74;20099;-75
2022/11/25 04:33:00;;;;;;;;;;;1.70;99.90;;;;;;1951288;74;20333;-74
2022/11/25 04:35:27;;;;;;;;;;;1.50;99.90;;;;;;1951343;73;20195;-74
2022/11/25 04:37:54;;;;;;;;;;;1.50;99.90;;;;;;1951384;74;20114;-76
2022/11/25 04:40:20;;;;;;;;;;;1.60;99.90;;;;;;1951433;74;20126;-76
2022/11/25 04:42:47;;;;;;;;;;;1.60;99.90;;;;;;1951415;74;20164;-76
2022/11/25 04:45:14;;;;;;;;;;;1.70;99.90;;;;;;1951413;74;20172;-75
2022/11/25 04:47:41;;;;;;;;;;;1.60;99.90;;;;;;1951340;74;20144;-74
2022/11/25 04:50:09;;;;;;;;;;;1.70;99.90;;;;;;1951568;74;20109;-75
2022/11/25 04:52:36;;;;;;;;;;;1.70;99.90;;;;;;1951341;74;20141;-74
2022/11/25 04:55:02;;;;;;;;;;;1.70;99.90;;;;;;1951458;73;20145;-76
2022/11/25 04:57:29;;;;;;;;;;;1.70;99.90;;;;;;1951422;74;20098;-75
2022/11/25 04:59:56;;;;;;;;;;;1.70;99.90;;;;;;1951437;74;20380;-76
2022/11/25 05:02:23;;;;;;;;;;;1.70;99.90;;;;;;1951390;74;20106;-76
2022/11/25 05:04:51;;;;;;;;;;;1.70;99.90;;;;;;1951461;74;20141;-76
2022/11/25 05:07:18;;;;;;;;;;;1.70;99.90;;;;;;1951307;74;20143;-75
2022/11/25 05:09:44;;;;;;;;;;;1.60;99.90;;;;;;1951377;74;20144;-76
2022/11/25 05:12:12;;;;;;;;;;;1.60;99.90;;;;;;1951354;73;20122;-76
2022/11/25 05:14:39;;;;;;;;;;;1.70;99.90;;;;;;1951462;74;20133;-75
2022/11/25 05:17:06;;;;;;;;;;;1.80;99.90;;;;;;1951410;73;20160;-75
2022/11/25 05:19:34;;;;;;;;;;;1.70;99.90;;;;;;1951324;73;20094;-74
2022/11/25 05:22:01;;;;;;;;;;;1.80;99.90;;;;;;1951424;72;20135;-76
2022/11/25 05:24:29;;;;;;;;;;;1.90;99.90;;;;;;1951512;74;20113;-76
2022/11/25 05:26:56;;;;;;;;;;;1.80;99.90;;;;;;1951478;74;20179;-74
2022/11/25 05:29:22;;;;;;;;;;;1.70;99.90;;;;;;1951343;74;20339;-75
2022/11/25 05:31:49;;;;;;;;;;;1.70;99.90;;;;;;1951260;74;20163;-77
2022/11/25 05:34:16;;;;;;;;;;;1.60;99.90;;;;;;1951375;74;20313;-74
2022/11/25 05:36:42;;;;;;;;;;;1.60;99.90;;;;;;1951336;74;20098;-76
2022/11/25 05:39:09;;;;;;;;;;;1.60;99.90;;;;;;1951391;74;20099;-75
2022/11/25 05:41:36;;;;;;;;;;;1.60;99.90;;;;;;1951357;74;20102;-76
2022/11/25 05:44:04;;;;;;;;;;;1.50;99.90;;;;;;1951397;74;20160;-76
2022/11/25 05:46:30;;;;;;;;;;;1.50;99.90;;;;;;1951527;73;20330;-76
2022/11/25 05:48:59;;;;;;;;;;;1.50;99.90;;;;;;1951334;73;20195;-76
2022/11/25 05:51:27;;;;;;;;;;;1.40;99.90;;;;;;1951344;73;20161;-75
2022/11/25 05:53:54;;;;;;;;;;;1.40;99.90;;;;;;1951341;74;20121;-76
2022/11/25 05:56:21;;;;;;;;;;;1.40;99.90;;;;;;1951449;74;20110;-75
2022/11/25 05:58:47;;;;;;;;;;;1.30;99.90;;;;;;1951217;74;20172;-74
2022/11/25 06:01:14;;;;;;;;;;;1.40;99.90;;;;;;1951330;74;20144;-76
2022/11/25 06:03:41;;;;;;;;;;;1.30;99.90;;;;;;1951547;74;20136;-74
2022/11/25 06:06:08;;;;;;;;;;;1.30;99.90;;;;;;1951364;74;20122;-76
2022/11/25 06:08:35;;;;;;;;;;;1.30;99.90;;;;;;1951222;73;20102;-74
2022/11/25 06:11:05;;;;;;;;;;;1.30;99.90;;;;;;1951397;74;20110;-74
2022/11/25 06:13:32;;;;;;;;;;;1.40;99.90;;;;;;1951285;74;20106;-74
2022/11/25 06:15:59;;;;;;;;;;;1.40;99.90;;;;;;1951324;73;20094;-74
2022/11/25 06:18:25;;;;;;;;;;;1.40;99.90;;;;;;1951328;73;20329;-73
2022/11/25 06:20:56;;;;;;;;;;;1.40;99.90;;;;;;1951261;74;20134;-72
2022/11/25 06:23:23;;;;;;;;;;;1.40;99.90;;;;;;1951224;74;20109;-72
2022/11/25 06:25:50;;;;;;;;;;;1.30;99.90;;;;;;1951429;74;20139;-73
2022/11/25 06:28:17;;;;;;;;;;;1.30;99.90;;;;;;1951444;74;20144;-77
2022/11/25 06:30:45;;;;;;;;;;;1.30;99.90;;;;;;1951684;74;20109;-76
2022/11/25 06:33:12;;;;;;;;;;;1.20;99.90;;;;;;1951767;73;20115;-77
2022/11/25 06:35:39;;;;;;;;;;;1.20;99.90;;;;;;1952002;73;20171;-77
2022/11/25 06:38:06;;;;;;;;;;;1.20;99.90;;;;;;1954452;72;20102;-76
2022/11/25 06:40:33;;;;;;;;;;;1.20;99.90;;;;;;1952579;74;20325;-76
2022/11/25 06:42:59;;;;;;;;;;;1.20;99.90;;;;;;1952151;74;20110;-75
2022/11/25 06:45:26;;;;;;;;;;;1.20;99.90;;;;;;1954620;72;20104;-76
2022/11/25 06:47:53;;;;;;;;;;;1.20;99.90;;;;;;1955008;72;20148;-77
2022/11/25 06:50:20;;;;;;;;;;;1.20;99.90;;;;;;1954927;74;20127;-77
2022/11/25 06:52:46;;;;;;;;;;;1.20;99.90;;;;;;1954795;74;20157;-77
2022/11/25 06:55:13;;;;;;;;;;;1.30;99.90;;;;;;1954810;74;20107;-75
2022/11/25 06:57:40;;;;;;;;;;;1.30;99.90;;;;;;1954513;73;20123;-75
2022/11/25 07:00:07;;;;;;;;;;;1.30;99.90;;;;;;1951499;74;20106;-79
2022/11/25 07:02:34;;;;;;;;;;;1.30;99.90;;;;;;1951662;73;20200;-79
2022/11/25 07:05:01;;;;;;;;;;;1.30;99.90;;;;;;1951653;74;20326;-78
2022/11/25 07:07:27;;;;;;;;;;;1.40;99.90;;;;;;1951511;74;20207;-78
2022/11/25 07:09:54;;;;;;;;;;;1.40;99.90;;;;;;1951673;74;20156;-78
2022/11/25 07:12:21;;;;;;;;;;;1.50;99.90;;;;;;1951562;74;20140;-77
2022/11/25 07:14:49;;;;;;;;;;;1.60;99.90;;;;;;1951338;74;20381;-76
2022/11/25 07:17:16;;;;;;;;;;;1.70;99.90;;;;;;1951390;73;20114;-77
2022/11/25 07:19:44;;;;;;;;;;;1.80;99.90;;;;;;1951445;73;20345;-78
2022/11/25 07:22:11;;;;;;;;;;;1.70;99.90;;;;;;1951288;74;20110;-79
2022/11/25 07:24:37;;;;;;;;;;;1.70;99.90;;;;;;1951165;74;20191;-77
2022/11/25 07:27:05;;;;;;;;;;;1.80;99.90;;;;;;1951401;74;20114;-78
2022/11/25 07:29:34;;;;;;;;;;;1.80;99.90;;;;;;1953617;73;20106;-79
2022/11/25 07:32:01;;;;;;;;;;;1.80;99.90;;;;;;1951355;73;20183;-78
2022/11/25 07:34:27;;;;;;;;;;;1.80;99.90;;;;;;1951266;74;20372;-78
2022/11/25 07:36:54;;;;;;;;;;;1.80;99.90;;;;;;1951362;73;20105;-79
2022/11/25 07:39:21;;;;;;;;;;;1.80;99.90;;;;;;1951192;74;20351;-79
2022/11/25 07:41:55;;;;;;;;;;;1.80;99.90;;;;;;1951325;74;20121;-78
2022/11/25 07:44:22;;;;;;;;;;;1.90;99.90;;;;;;1951346;74;20110;-77
2022/11/25 07:46:49;;;;;;;;;;;2.00;99.90;;;;;;1951527;73;20155;-78
2022/11/25 07:49:16;;;;;;;;;;;2.00;99.90;;;;;;1953372;74;20102;-78
2022/11/25 07:51:44;;;;;;;;;;;2.10;99.90;;;;;;1953668;74;20172;-78
2022/11/25 07:54:13;;;;;;;;;;;2.10;99.90;;;;;;1954859;73;20114;-77
2022/11/25 07:56:40;;;;;;;;;;;2.10;99.90;;;;;;1951089;73;20363;-78
2022/11/25 07:59:07;;;;;;;;;;;2.10;99.90;;;;;;1951396;74;20098;-79
2022/11/25 08:01:34;;;;;;;;;;;2.20;99.90;;;;;;1951513;74;20183;-78
2022/11/25 08:04:00;;;;;;;;;;;2.30;99.90;;;;;;1951329;73;20106;-78
2022/11/25 08:06:28;;;;;;;;;;;2.30;99.90;;;;;;1951225;74;20153;-78
2022/11/25 08:08:55;;;;;;;;;;;2.30;99.90;;;;;;1951423;74;20110;-77
2022/11/25 08:11:23;;;;;;;;;;;2.30;99.90;;;;;;1951328;73;20109;-78
2022/11/25 08:13:50;;;;;;;;;;;2.40;99.90;;;;;;1951357;73;20145;-78
2022/11/25 08:16:17;;;;;;;;;;;2.40;99.90;;;;;;1951441;73;20198;-78
2022/11/25 08:18:44;;;;;;;;;;;2.50;99.90;;;;;;1951354;74;20114;-78
2022/11/25 08:21:11;;;;;;;;;;;2.50;99.90;;;;;;1951495;74;20175;-77
2022/11/25 08:23:38;;;;;;;;;;;2.60;99.90;;;;;;1951520;74;20332;-78
2022/11/25 08:26:09;;;;;;;;;;;2.60;99.90;;;;;;1951474;74;20125;-77
2022/11/25 08:28:36;;;;;;;;;;;2.50;99.90;;;;;;1951371;73;20114;-75
2022/11/25 08:31:04;;;;;;;;;;;2.50;99.90;;;;;;1951385;74;20109;-76
2022/11/25 08:33:30;;;;;;;;;;;2.60;99.90;;;;;;1951389;74;20136;-77
2022/11/25 08:35:57;;;;;;;;;;;2.60;99.90;;;;;;1951396;74;20141;-76
2022/11/25 08:38:24;;;;;;;;;;;2.70;99.90;;;;;;1951387;74;20143;-76
2022/11/25 08:40:51;;;;;;;;;;;2.90;99.90;;;;;;1951401;74;20110;-77
2022/11/25 08:43:18;;;;;;;;;;;2.90;99.90;;;;;;1951345;74;20158;-77
2022/11/25 08:45:45;;;;;;;;;;;3.00;99.90;;;;;;1951337;74;20113;-78
2022/11/25 08:48:12;;;;;;;;;;;3.10;99.90;;;;;;1951215;74;20106;-79
2022/11/25 08:50:41;;;;;;;;;;;3.10;99.90;;;;;;1951487;74;20146;-78
2022/11/25 08:53:07;;;;;;;;;;;3.30;99.90;;;;;;1951311;73;20203;-79
2022/11/25 08:55:35;;;;;;;;;;;3.20;99.90;;;;;;1951174;74;20145;-79
2022/11/25 08:58:02;;;;;;;;;;;3.10;99.90;;;;;;1951322;72;20326;-77
2022/11/25 09:00:29;;;;;;;;;;;3.30;99.90;;;;;;1951312;74;20164;-79
2022/11/25 09:02:55;;;;;;;;;;;3.50;99.90;;;;;;1951422;74;20363;-79
2022/11/25 09:05:22;;;;;;;;;;;3.50;99.90;;;;;;1951429;74;20140;-78
2022/11/25 09:07:49;;;;;;;;;;;3.50;99.90;;;;;;1951395;74;20122;-76
2022/11/25 09:10:16;;;;;;;;;;;3.50;99.90;;;;;;1951363;74;20121;-76
2022/11/25 09:12:43;;;;;;;;;;;3.60;99.90;;;;;;1951405;73;20102;-75
2022/11/25 09:15:11;;;;;;;;;;;3.70;99.90;;;;;;1951362;73;20151;-75
2022/11/25 09:17:38;;;;;;;;;;;3.50;99.90;;;;;;1951416;74;20153;-76
2022/11/25 09:20:05;;;;;;;;;;;3.80;99.90;;;;;;1951386;74;20141;-76
2022/11/25 09:22:32;;;;;;;;;;;4.20;99.90;;;;;;1951374;74;20312;-76
2022/11/25 09:24:58;;;;;;;;;;;4.40;99.90;;;;;;1951508;74;20113;-76
2022/11/25 09:27:25;;;;;;;;;;;4.70;99.90;;;;;;1951422;74;20366;-76
2022/11/25 09:29:52;;;;;;;;;;;4.90;99.90;;;;;;1951523;73;20148;-76
2022/11/25 09:32:19;;;;;;;;;;;5.30;99.90;;;;;;1951538;74;20176;-77
2022/11/25 09:34:45;;;;;;;;;;;5.50;99.90;;;;;;1951584;73;20160;-77
2022/11/25 09:37:12;;;;;;;;;;;5.80;99.90;;;;;;1951520;74;20110;-78
2022/11/25 09:39:39;;;;;;;;;;;5.70;99.90;;;;;;1951352;73;20098;-78
2022/11/25 09:47:49;;;;;;;;;;;5.70;99.90;;;;;;1951427;74;20145;-77
2022/11/25 09:50:17;;;;;;;;;;;5.80;99.90;;;;;;1951307;73;20359;-77
2022/11/25 09:52:45;;;;;;;;;;;5.80;99.90;;;;;;1951230;74;20114;-77
2022/11/25 09:55:14;;;;;;;;;;;5.90;99.90;;;;;;1951793;73;20329;-77
2022/11/25 09:57:48;;;;;;;;;;;6.00;99.90;;;;;;1951250;72;20129;-78
2022/11/25 10:00:16;;;;;;;;;;;6.10;99.90;;;;;;1951405;72;20113;-76
2022/11/25 10:02:47;;;;;;;;;;;6.00;99.90;;;;;;1951449;74;20114;-76
2022/11/25 10:05:15;;;;;;;;;;;5.90;99.90;;;;;;1951416;73;20371;-78
2022/11/25 10:07:46;;;;;;;;;;;5.90;99.90;;;;;;1951250;73;20143;-77
2022/11/25 10:10:20;;;;;;;;;;;5.90;99.90;;;;;;1951283;72;20337;-79
2022/11/25 10:12:47;;;;;;;;;;;5.90;99.90;;;;;;1951309;73;20121;-77
2022/11/25 10:15:18;;;;;;;;;;;5.80;99.90;;;;;;1951308;74;20153;-77
2022/11/25 10:17:48;;;;;;;;;;;5.80;99.90;;;;;;1950871;71;20176;-78
2022/11/25 10:20:19;;;;;;;;;;;5.80;99.90;;;;;;1951274;72;20389;-77
2022/11/25 10:22:46;;;;;;;;;;;5.90;99.90;;;;;;1951201;72;20344;-77
2022/11/25 10:25:14;;;;;;;;;;;5.90;99.90;;;;;;1951316;74;20105;-76
2022/11/25 10:27:42;;;;;;;;;;;5.90;99.90;;;;;;1951337;74;20160;-77
2022/11/25 10:30:14;;;;;;;;;;;6.00;99.90;;;;;;1951322;74;20109;-78
2022/11/25 10:32:41;;;;;;;;;;;6.10;99.90;;;;;;1951321;73;20106;-77
2022/11/25 10:35:09;;;;;;;;;;;6.20;99.90;;;;;;1951175;74;20145;-76
2022/11/25 10:37:37;;;;;;;;;;;6.20;99.90;;;;;;1951288;73;20114;-76
2022/11/25 10:40:05;;;;;;;;;;;6.30;99.90;;;;;;1951269;73;20109;-77
2022/11/25 10:42:32;;;;;;;;;;;6.30;99.90;;;;;;1951250;73;20110;-77
2022/11/25 10:44:58;;;;;;;;;;;6.40;99.90;;;;;;1951254;74;20153;-76
2022/11/25 10:47:43;;;;;;;;;;;6.50;99.90;;;;;;1951335;74;20162;-78
2022/11/25 10:50:27;;;;;;;;;;;6.80;99.90;;;;;;1951324;73;20117;-77
2022/11/25 10:52:58;;;;;;;;;;;6.90;99.90;;;;;;1951375;74;20191;-77
2022/11/25 10:55:26;;;;;;;;;;;6.90;99.90;;;;;;1951778;74;20152;-77
2022/11/25 10:57:53;;;;;;;;;;;7.20;99.90;;;;;;1952096;73;20102;-76
2022/11/25 11:00:24;;;;;;;;;;;7.10;99.90;;;;;;1951487;73;20110;-76
2022/11/25 11:02:51;;;;;;;;;;;7.00;99.90;;;;;;1951473;72;20126;-78
2022/11/25 11:05:19;;;;;;;;;;;7.00;99.90;;;;;;1951704;74;20268;-78
2022/11/25 11:07:46;;;;;;;;;;;7.10;99.90;;;;;;1952323;74;20142;-78
2022/11/25 11:10:14;;;;;;;;;;;6.90;99.90;;;;;;1954542;73;20134;-75
2022/11/25 11:13:00;;;;;;;;;;;6.90;99.90;;;;;;1954442;74;20138;-78
2022/11/25 11:15:27;;;;;;;;;;;7.00;99.90;;;;;;1953803;74;20145;-79
2022/11/25 11:17:54;;;;;;;;;;;7.20;99.90;;;;;;1954810;73;20170;-77
2022/11/25 11:20:27;;;;;;;;;;;7.20;99.90;;;;;;1954873;74;20127;-82
2022/11/25 11:22:59;;;;;;;;;;;7.40;99.90;;;;;;1952608;74;20102;-80
2022/11/25 11:25:27;;;;;;;;;;;7.40;99.90;;;;;;1951681;72;20115;-78
2022/11/25 11:27:54;;;;;;;;;;;7.50;99.90;;;;;;1951811;73;20110;-79
2022/11/25 11:30:22;;;;;;;;;;;7.50;99.90;;;;;;1952114;73;20110;-79
2022/11/25 11:33:03;;;;;;;;;;;7.30;99.90;;;;;;1951913;73;20118;-79
2022/11/25 11:35:31;;;;;;;;;;;7.30;99.90;;;;;;1951879;74;20202;-79
2022/11/25 11:37:59;;;;;;;;;;;7.30;99.90;;;;;;1951762;73;20250;-80
2022/11/25 11:40:38;;;;;;;;;;;7.30;99.90;;;;;;1951674;73;20145;-81
2022/11/25 11:43:07;;;;;;;;;;;7.30;99.90;;;;;;1951798;74;20141;-76
2022/11/25 11:45:41;;;;;;;;;;;7.40;99.90;;;;;;1951888;74;20117;-75
2022/11/25 11:48:27;;;;;;;;;;;7.50;99.90;;;;;;1951908;73;20119;-74
2022/11/25 11:50:59;;;;;;;;;;;7.50;99.90;;;;;;1952175;73;20105;-75
2022/11/25 11:53:33;;;;;;;;;;;7.40;99.90;;;;;;1951790;73;20114;-75
2022/11/25 11:56:11;;;;;;;;;;;7.40;99.90;;;;;;1951871;74;20152;-75
2022/11/25 11:58:56;;;;;;;;;;;7.40;99.90;;;;;;1951914;74;20110;-74
2022/11/25 12:01:44;;;;;;;;;;;7.50;99.90;;;;;;1951956;74;20121;-74
2022/11/25 12:04:18;;;;;;;;;;;7.50;99.90;;;;;;1951977;74;20333;-74
2022/11/25 12:06:47;;;;;;;;;;;7.40;99.90;;;;;;1952027;73;20117;-73
2022/11/25 12:09:15;;;;;;;;;;;7.40;99.90;;;;;;1951196;73;20105;-77
2022/11/25 12:11:43;;;;;;;;;;;7.50;99.90;;;;;;1951270;74;20325;-73
2022/11/25 12:14:14;;;;;;;;;;;7.70;99.90;;;;;;1951231;74;20318;-73
2022/11/25 12:16:48;;;;;;;;;;;7.80;99.90;;;;;;1951301;71;20164;-72
2022/11/25 12:19:22;;;;;;;;;;;7.80;99.90;;;;;;1951187;73;20179;-73
2022/11/25 12:21:54;;;;;;;;;;;7.90;99.90;;;;;;1951352;73;20179;-81
2022/11/25 12:24:31;;;;;;;;;;;8.10;99.90;;;;;;1951302;74;20160;-75
2022/11/25 12:27:02;;;;;;;;;;;8.10;99.90;;;;;;1951210;73;20164;-79
2022/11/25 12:29:33;;;;;;;;;;;8.10;99.90;;;;;;1951574;72;20222;-79
2022/11/25 12:32:02;;;;;;;;;;;8.00;99.90;;;;;;1951275;73;20164;-77
2022/11/25 12:34:33;;;;;;;;;;;8.10;99.90;;;;;;1951371;73;20161;-77
2022/11/25 12:37:11;;;;;;;;;;;8.20;99.90;;;;;;1951424;73;20109;-78
2022/11/25 12:39:42;;;;;;;;;;;8.20;99.90;;;;;;1951335;72;20144;-77
2022/11/25 12:42:10;;;;;;;;;;;8.50;99.90;;;;;;1951633;74;20183;-80
2022/11/25 12:44:38;;;;;;;;;;;8.70;99.90;;;;;;1951495;72;20117;-79
2022/11/25 12:47:07;;;;;;;;;;;8.80;99.90;;;;;;1951313;74;20114;-77
2022/11/25 12:49:35;;;;;;;;;;;8.80;99.90;;;;;;1951547;73;20148;-77
2022/11/25 12:52:03;;;;;;;;;;;8.70;99.90;;;;;;1951435;71;20114;-80
2022/11/25 12:54:38;;;;;;;;;;;8.70;99.90;;;;;;1951245;73;20310;-81
2022/11/25 12:57:18;;;;;;;;;;;8.60;99.90;;;;;;1951269;72;20104;-78
2022/11/25 13:00:03;;;;;;;;;;;8.80;99.90;;;;;;1951265;73;20133;-78
2022/11/25 13:02:48;;;;;;;;;;;8.70;99.90;;;;;;1951195;74;20356;-78
2022/11/25 13:05:33;;;;;;;;;;;8.80;99.90;;;;;;1951237;74;20098;-78
2022/11/25 13:08:01;;;;;;;;;;;8.70;99.90;;;;;;1951238;74;20102;-77
2022/11/25 13:10:32;;;;;;;;;;;8.70;99.90;;;;;;1951524;72;20157;-78
2022/11/25 13:13:03;;;;;;;;;;;8.70;99.90;;;;;;1951909;74;20153;-76
2022/11/25 13:15:44;;;;;;;;;;;8.70;99.90;;;;;;1951423;73;20156;-75
2022/11/25 13:18:13;;;;;;;;;;;8.70;99.90;;;;;;1951241;73;20106;-75
2022/11/25 13:20:43;;;;;;;;;;;8.70;99.90;;;;;;1951273;73;20149;-75
2022/11/25 13:23:14;;;;;;;;;;;8.80;99.90;;;;;;1951328;74;20110;-77
2022/11/25 13:25:41;;;;;;;;;;;8.80;99.90;;;;;;1951277;74;20155;-76
2022/11/25 13:28:27;;;;;;;;;;;8.80;99.90;;;;;;1951660;74;20314;-75
2022/11/25 13:30:54;;;;;;;;;;;8.70;99.90;;;;;;1951511;74;20113;-77
2022/11/25 13:33:25;;;;;;;;;;;8.80;99.90;;;;;;1951312;74;20165;-75
2022/11/25 13:35:55;;;;;;;;;;;8.70;99.90;;;;;;1951278;73;20148;-77
2022/11/25 13:38:35;;;;;;;;;;;8.80;99.90;;;;;;1951321;74;20165;-78
2022/11/25 13:41:04;;;;;;;;;;;8.80;99.90;;;;;;1951228;74;20110;-77
2022/11/25 13:43:30;;;;;;;;;;;8.70;99.90;;;;;;1951569;73;20314;-79
2022/11/25 13:45:57;;;;;;;;;;;8.70;99.90;;;;;;1951290;73;20099;-77
2022/11/25 13:48:26;;;;;;;;;;;8.70;99.90;;;;;;1951386;74;20294;-78
2022/11/25 13:50:54;;;;;;;;;;;8.80;99.90;;;;;;1951403;74;20171;-77
2022/11/25 13:53:28;;;;;;;;;;;9.00;99.90;;;;;;1952423;72;20114;-77
2022/11/25 13:55:56;;;;;;;;;;;9.00;99.90;;;;;;1954008;73;20148;-78
2022/11/25 13:58:25;;;;;;;;;;;9.10;99.90;;;;;;1951995;73;20106;-78
2022/11/25 14:01:00;;;;;;;;;;;9.00;99.90;;;;;;1951468;71;20148;-76
2022/11/25 14:03:28;;;;;;;;;;;9.10;99.90;;;;;;1951446;74;20317;-77
2022/11/25 14:05:59;;;;;;;;;;;9.20;99.90;;;;;;1953334;73;20102;-75
2022/11/25 14:08:42;;;;;;;;;;;9.20;99.90;;;;;;1954106;74;20174;-77
2022/11/25 14:11:11;;;;;;;;;;;9.40;99.90;;;;;;1953595;73;20228;-77
2022/11/25 14:13:39;;;;;;;;;;;9.60;99.90;;;;;;1954188;74;20107;-78
2022/11/25 14:16:07;;;;;;;;;;;10.00;99.90;;;;;;1954217;73;20110;-77
2022/11/25 14:18:39;;;;;;;;;;;10.50;99.90;;;;;;1954116;73;20109;-76
2022/11/25 14:21:08;;;;;;;;;;;10.90;99.90;;;;;;1954142;73;20087;-75
2022/11/25 14:23:42;;;;;;;;;;;10.50;99.90;;;;;;1954163;74;20134;-77
2022/11/25 14:26:13;;;;;;;;;;;10.10;99.90;;;;;;1954886;73;20178;-77
2022/11/25 14:28:58;;;;;;;;;;;10.10;99.90;;;;;;1954387;74;20279;-73
2022/11/25 14:31:32;;;;;;;;;;;10.00;99.90;;;;;;1953673;74;20141;-75
2022/11/25 14:34:00;;;;;;;;;;;9.80;99.90;;;;;;1953353;74;20137;-74
2022/11/25 14:36:31;;;;;;;;;;;9.70;99.90;;;;;;1953128;74;20183;-75
2022/11/25 14:39:01;;;;;;;;;;;9.60;99.90;;;;;;1953143;73;20144;-75
2022/11/25 14:41:29;;;;;;;;;;;9.40;99.90;;;;;;1952176;74;20110;-75
2022/11/25 14:43:58;;;;;;;;;;;9.30;99.90;;;;;;1952124;73;20117;-76
2022/11/25 14:46:24;;;;;;;;;;;9.30;99.90;;;;;;1951519;73;20102;-74